Time;durP1;ratioP1;P1;durP2;ratioP2;P2;SDS_P1;SDS_P2;PMS_P1;PMS_P2;Temp;Humidity;BMP_temperature;BMP_pressure;BME280_temperature;BME280_humidity;BME280_pressure;Samples;Min_cycle;Max_cycle;Signal;HPM_P1;HPM_P2
2024/01/24 00:00:32;;;;;;;;;;;6.20;99.90;;;;;;5117156;28;19965;-86
2024/01/24 00:02:58;;;;;;;;;;;6.10;99.90;;;;;;5116496;28;19908;-87
2024/01/24 00:05:23;;;;;;;;;;;6.10;99.90;;;;;;5119393;28;19904;-86
2024/01/24 00:07:50;;;;;;;;;;;6.10;99.90;;;;;;5118741;28;19904;-87
2024/01/24 00:10:15;;;;;;;;;;;6.00;99.90;;;;;;5119129;28;19908;-87
2024/01/24 00:12:41;;;;;;;;;;;6.00;99.90;;;;;;5113354;28;19965;-86
2024/01/24 00:15:07;;;;;;;;;;;6.00;99.90;;;;;;5108674;28;19946;-86
2024/01/24 00:17:32;;;;;;;;;;;6.00;99.90;;;;;;5111223;28;19911;-87
2024/01/24 00:19:58;;;;;;;;;;;6.00;99.90;;;;;;5110131;28;19908;-87
2024/01/24 00:22:23;;;;;;;;;;;6.00;99.90;;;;;;5118628;28;19904;-86
2024/01/24 00:24:49;;;;;;;;;;;6.10;99.90;;;;;;5117658;28;19986;-86
2024/01/24 00:27:14;;;;;;;;;;;6.10;99.90;;;;;;5118465;28;19957;-85
2024/01/24 00:29:40;;;;;;;;;;;6.20;99.90;;;;;;5116693;28;19911;-85
2024/01/24 00:32:05;;;;;;;;;;;6.20;99.90;;;;;;5115289;28;19903;-85
2024/01/24 00:34:31;;;;;;;;;;;6.20;99.90;;;;;;5113034;28;20048;-86
2024/01/24 00:36:56;;;;;;;;;;;6.20;99.90;;;;;;5116334;28;19908;-86
2024/01/24 00:39:22;;;;;;;;;;;6.20;99.90;;;;;;5118395;28;19932;-86
2024/01/24 00:41:47;;;;;;;;;;;6.20;99.90;;;;;;5118033;28;19908;-87
2024/01/24 00:44:13;;;;;;;;;;;6.10;99.90;;;;;;5107647;28;20447;-86
2024/01/24 00:46:40;;;;;;;;;;;6.10;99.90;;;;;;5115209;28;19904;-85
2024/01/24 00:49:09;;;;;;;;;;;6.00;99.90;;;;;;5119241;28;19926;-86
2024/01/24 00:51:35;;;;;;;;;;;6.00;99.90;;;;;;5120112;28;19910;-85
2024/01/24 00:54:01;;;;;;;;;;;6.00;99.90;;;;;;5118555;28;19943;-85
2024/01/24 00:56:26;;;;;;;;;;;6.00;99.90;;;;;;5117915;28;19916;-85
2024/01/24 00:58:52;;;;;;;;;;;6.00;99.90;;;;;;5119165;28;20007;-85
2024/01/24 01:01:18;;;;;;;;;;;6.00;99.90;;;;;;5119168;28;20403;-86
2024/01/24 01:03:43;;;;;;;;;;;5.90;99.90;;;;;;5115821;28;20388;-86
2024/01/24 01:06:09;;;;;;;;;;;5.90;99.90;;;;;;5118866;28;19904;-86
2024/01/24 01:08:34;;;;;;;;;;;5.80;99.90;;;;;;5114571;28;19911;-86
2024/01/24 01:11:00;;;;;;;;;;;5.80;99.90;;;;;;5117438;27;19915;-85
2024/01/24 01:13:25;;;;;;;;;;;5.70;99.90;;;;;;5117759;28;19910;-86
2024/01/24 01:15:51;;;;;;;;;;;5.70;99.90;;;;;;5113856;28;19904;-87
2024/01/24 01:18:16;;;;;;;;;;;5.70;99.90;;;;;;5117864;28;19929;-87
2024/01/24 01:20:42;;;;;;;;;;;5.70;99.90;;;;;;5116238;28;20436;-85
2024/01/24 01:23:07;;;;;;;;;;;5.60;99.90;;;;;;5117390;28;20396;-85
2024/01/24 01:25:33;;;;;;;;;;;5.60;99.90;;;;;;5114150;28;19955;-86
2024/01/24 01:27:58;;;;;;;;;;;5.50;99.90;;;;;;5117015;28;19908;-86
2024/01/24 01:30:24;;;;;;;;;;;5.50;99.90;;;;;;5117589;28;19904;-88
2024/01/24 01:32:50;;;;;;;;;;;5.50;99.90;;;;;;5112025;28;20443;-87
2024/01/24 01:35:16;;;;;;;;;;;5.50;99.90;;;;;;5113434;28;19911;-88
2024/01/24 01:37:42;;;;;;;;;;;5.50;99.90;;;;;;5116188;28;19908;-87
2024/01/24 01:40:08;;;;;;;;;;;5.40;99.90;;;;;;5112120;28;19994;-88
2024/01/24 01:42:33;;;;;;;;;;;5.40;99.90;;;;;;5117001;28;19915;-84
2024/01/24 01:44:59;;;;;;;;;;;5.40;99.90;;;;;;5113523;28;19908;-85
2024/01/24 01:47:25;;;;;;;;;;;5.30;99.90;;;;;;5117170;28;19904;-85
2024/01/24 01:49:51;;;;;;;;;;;5.30;99.90;;;;;;5115427;28;19952;-85
2024/01/24 01:52:17;;;;;;;;;;;5.30;99.90;;;;;;5113169;28;19910;-85
2024/01/24 01:54:43;;;;;;;;;;;5.30;99.90;;;;;;5116682;28;19915;-85
2024/01/24 01:57:11;;;;;;;;;;;5.30;99.90;;;;;;5116824;28;20433;-85
2024/01/24 01:59:40;;;;;;;;;;;5.30;99.90;;;;;;5103133;28;19931;-85
2024/01/24 02:02:06;;;;;;;;;;;5.30;99.90;;;;;;5116831;28;19915;-86
2024/01/24 02:04:31;;;;;;;;;;;5.20;99.90;;;;;;5112902;28;19904;-86
2024/01/24 02:06:57;;;;;;;;;;;5.30;99.90;;;;;;5109747;28;19911;-85
2024/01/24 02:09:23;;;;;;;;;;;5.20;99.90;;;;;;5116604;28;19904;-85
2024/01/24 02:11:48;;;;;;;;;;;5.30;99.90;;;;;;5115351;28;19919;-86
2024/01/24 02:14:14;;;;;;;;;;;5.30;99.90;;;;;;5115594;28;19947;-85
2024/01/24 02:16:39;;;;;;;;;;;5.30;99.90;;;;;;5112205;28;20010;-84
2024/01/24 02:19:06;;;;;;;;;;;5.30;99.90;;;;;;5113670;28;19942;-85
2024/01/24 02:21:32;;;;;;;;;;;5.20;99.90;;;;;;5117652;28;19903;-85
2024/01/24 02:23:58;;;;;;;;;;;5.20;99.90;;;;;;5119018;27;20329;-86
2024/01/24 02:26:24;;;;;;;;;;;5.20;99.90;;;;;;5119614;28;19911;-86
2024/01/24 02:28:49;;;;;;;;;;;5.20;99.90;;;;;;5119406;28;20576;-87
2024/01/24 02:31:15;;;;;;;;;;;5.20;99.90;;;;;;5117060;28;20403;-85
2024/01/24 02:33:40;;;;;;;;;;;5.20;99.90;;;;;;5110512;28;19929;-85
2024/01/24 02:36:06;;;;;;;;;;;5.20;99.90;;;;;;5116856;28;19911;-84
2024/01/24 02:38:31;;;;;;;;;;;5.20;99.90;;;;;;5116507;28;20002;-85
2024/01/24 02:40:57;;;;;;;;;;;5.20;99.90;;;;;;5115020;28;19957;-85
2024/01/24 02:43:23;;;;;;;;;;;5.20;99.90;;;;;;5115045;28;19904;-84
2024/01/24 02:45:49;;;;;;;;;;;5.20;99.90;;;;;;5111966;28;19908;-84
2024/01/24 02:48:14;;;;;;;;;;;5.20;99.90;;;;;;5114786;28;19918;-84
2024/01/24 02:50:40;;;;;;;;;;;5.20;99.90;;;;;;5116110;28;19904;-84
2024/01/24 02:53:06;;;;;;;;;;;5.20;99.90;;;;;;5118152;28;19998;-85
2024/01/24 02:55:31;;;;;;;;;;;5.20;99.90;;;;;;5120367;28;20340;-85
2024/01/24 02:57:57;;;;;;;;;;;5.10;99.90;;;;;;5118689;28;20288;-86
2024/01/24 03:00:22;;;;;;;;;;;5.10;99.90;;;;;;5120798;28;19903;-85
2024/01/24 03:02:48;;;;;;;;;;;5.10;99.90;;;;;;5120711;28;20375;-85
2024/01/24 03:05:13;;;;;;;;;;;5.00;99.90;;;;;;5120448;28;20431;-85
2024/01/24 03:07:40;;;;;;;;;;;5.00;99.90;;;;;;5120137;28;20372;-86
2024/01/24 03:10:07;;;;;;;;;;;5.00;99.90;;;;;;5120109;28;19908;-85
2024/01/24 03:12:33;;;;;;;;;;;5.00;99.90;;;;;;5121280;28;19904;-84
2024/01/24 03:14:59;;;;;;;;;;;5.00;99.90;;;;;;5118034;28;19911;-86
2024/01/24 03:17:25;;;;;;;;;;;5.00;99.90;;;;;;5115904;28;19957;-86
2024/01/24 03:19:51;;;;;;;;;;;4.90;99.90;;;;;;5118820;28;19907;-85
2024/01/24 03:22:16;;;;;;;;;;;4.90;99.90;;;;;;5118558;28;19903;-86
2024/01/24 03:24:42;;;;;;;;;;;5.00;99.90;;;;;;5119729;28;19907;-87
2024/01/24 03:27:07;;;;;;;;;;;5.00;99.90;;;;;;5113787;28;19904;-87
2024/01/24 03:29:33;;;;;;;;;;;5.10;99.90;;;;;;5119841;28;19904;-84
2024/01/24 03:31:58;;;;;;;;;;;5.20;99.90;;;;;;5114824;28;19904;-84
2024/01/24 03:34:24;;;;;;;;;;;5.30;99.90;;;;;;5118497;28;19904;-85
2024/01/24 03:36:50;;;;;;;;;;;5.30;99.90;;;;;;5117933;28;19939;-84
2024/01/24 03:39:15;;;;;;;;;;;5.40;99.90;;;;;;5119495;28;20755;-84
2024/01/24 03:41:41;;;;;;;;;;;5.40;99.90;;;;;;5119126;28;20463;-84
2024/01/24 03:44:06;;;;;;;;;;;5.50;99.90;;;;;;5118262;28;19964;-85
2024/01/24 03:46:32;;;;;;;;;;;5.50;99.90;;;;;;5119162;28;19908;-85
2024/01/24 03:48:57;;;;;;;;;;;5.50;99.90;;;;;;5119599;28;19952;-85
2024/01/24 03:51:23;;;;;;;;;;;5.50;99.90;;;;;;5106384;28;19908;-85
2024/01/24 03:53:49;;;;;;;;;;;5.50;99.90;;;;;;5111839;28;19916;-85
2024/01/24 03:56:15;;;;;;;;;;;5.50;99.90;;;;;;5106738;28;19916;-85
2024/01/24 03:58:41;;;;;;;;;;;5.50;99.90;;;;;;5118976;28;20363;-86
2024/01/24 04:01:06;;;;;;;;;;;5.50;99.90;;;;;;5118872;28;19908;-85
2024/01/24 04:03:32;;;;;;;;;;;5.60;99.90;;;;;;5105572;28;19981;-86
2024/01/24 04:05:57;;;;;;;;;;;5.70;99.90;;;;;;5116466;28;19911;-84
2024/01/24 04:08:23;;;;;;;;;;;5.70;99.90;;;;;;5118000;28;20284;-85
2024/01/24 04:10:48;;;;;;;;;;;5.70;99.90;;;;;;5119311;28;20260;-84
2024/01/24 04:13:14;;;;;;;;;;;5.80;99.90;;;;;;5119301;28;19903;-86
2024/01/24 04:15:39;;;;;;;;;;;5.80;99.90;;;;;;5109879;27;19912;-87
2024/01/24 04:18:05;;;;;;;;;;;5.80;99.90;;;;;;5117851;28;19907;-86
2024/01/24 04:20:31;;;;;;;;;;;5.90;99.90;;;;;;5118970;28;19904;-86
2024/01/24 04:22:56;;;;;;;;;;;6.00;99.90;;;;;;5119035;28;20653;-86
2024/01/24 04:25:22;;;;;;;;;;;6.00;99.90;;;;;;5119022;28;20402;-86
2024/01/24 04:27:48;;;;;;;;;;;6.00;99.90;;;;;;5119045;28;20002;-85
2024/01/24 04:30:13;;;;;;;;;;;6.10;99.90;;;;;;5111499;28;19904;-87
2024/01/24 04:32:39;;;;;;;;;;;6.10;99.90;;;;;;5115016;28;19907;-87
2024/01/24 04:35:04;;;;;;;;;;;6.20;99.90;;;;;;5105178;28;19904;-88
2024/01/24 04:37:30;;;;;;;;;;;6.20;99.90;;;;;;5115326;28;19965;-88
2024/01/24 04:39:55;;;;;;;;;;;6.20;99.90;;;;;;5116924;28;19975;-86
2024/01/24 04:42:21;;;;;;;;;;;6.20;99.90;;;;;;5106975;28;20421;-87
2024/01/24 04:44:47;;;;;;;;;;;6.30;99.90;;;;;;5117156;28;19927;-89
2024/01/24 04:47:15;;;;;;;;;;;6.30;99.90;;;;;;5114276;28;19962;-87
2024/01/24 04:49:41;;;;;;;;;;;6.30;99.90;;;;;;5116782;28;19910;-86
2024/01/24 04:52:07;;;;;;;;;;;6.30;99.90;;;;;;5117162;28;20363;-86
2024/01/24 04:54:36;;;;;;;;;;;6.30;99.90;;;;;;5118058;28;19930;-87
2024/01/24 04:57:02;;;;;;;;;;;6.30;99.90;;;;;;5117851;28;20380;-86
2024/01/24 04:59:28;;;;;;;;;;;6.40;99.90;;;;;;5114457;28;19978;-86
2024/01/24 05:01:54;;;;;;;;;;;6.40;99.90;;;;;;5118354;28;19911;-86
2024/01/24 05:04:19;;;;;;;;;;;6.40;99.90;;;;;;5118136;28;20040;-85
2024/01/24 05:06:45;;;;;;;;;;;6.40;99.90;;;;;;5118220;28;19961;-86
2024/01/24 05:09:10;;;;;;;;;;;6.50;99.90;;;;;;5117674;28;20389;-84
2024/01/24 05:11:39;;;;;;;;;;;6.50;99.90;;;;;;5107734;28;19951;-86
2024/01/24 05:14:05;;;;;;;;;;;6.60;99.90;;;;;;5114871;28;19911;-84
2024/01/24 05:16:30;;;;;;;;;;;6.50;99.90;;;;;;5114558;28;19903;-87
2024/01/24 05:18:56;;;;;;;;;;;6.50;99.90;;;;;;5113935;28;19911;-86
2024/01/24 05:21:21;;;;;;;;;;;6.50;99.90;;;;;;5115210;28;19910;-86
2024/01/24 05:23:47;;;;;;;;;;;6.50;99.90;;;;;;5115791;28;20395;-87
2024/01/24 05:26:12;;;;;;;;;;;6.50;99.90;;;;;;5115581;28;19903;-86
2024/01/24 05:28:40;;;;;;;;;;;6.50;99.90;;;;;;5117947;28;19911;-86
2024/01/24 05:31:06;;;;;;;;;;;6.50;99.90;;;;;;5117559;28;19915;-83
2024/01/24 05:33:31;;;;;;;;;;;6.50;99.90;;;;;;5112979;28;19904;-84
2024/01/24 05:35:57;;;;;;;;;;;6.50;99.90;;;;;;5102614;28;20433;-84
2024/01/24 05:38:22;;;;;;;;;;;6.60;99.90;;;;;;5113019;28;19980;-84
2024/01/24 05:40:48;;;;;;;;;;;6.50;99.90;;;;;;5117682;28;19908;-83
2024/01/24 05:43:13;;;;;;;;;;;6.50;99.90;;;;;;5113722;28;19904;-83
2024/01/24 05:45:39;;;;;;;;;;;6.40;99.90;;;;;;5117686;28;19911;-83
2024/01/24 05:48:05;;;;;;;;;;;6.40;99.90;;;;;;5106756;28;19933;-83
2024/01/24 05:50:30;;;;;;;;;;;6.40;99.90;;;;;;5118162;28;19907;-84
2024/01/24 05:52:57;;;;;;;;;;;6.30;99.90;;;;;;5116620;28;19908;-83
2024/01/24 05:55:23;;;;;;;;;;;6.30;99.90;;;;;;5116827;28;20333;-82
2024/01/24 05:57:49;;;;;;;;;;;6.20;99.90;;;;;;5116630;28;19992;-83
2024/01/24 06:00:14;;;;;;;;;;;6.20;99.90;;;;;;5115399;28;19914;-83
2024/01/24 06:02:40;;;;;;;;;;;6.20;99.90;;;;;;5116505;28;19911;-83
2024/01/24 06:05:07;;;;;;;;;;;6.20;99.90;;;;;;5116607;28;19903;-85
2024/01/24 06:07:33;;;;;;;;;;;6.20;99.90;;;;;;5112361;28;19927;-83
2024/01/24 06:09:59;;;;;;;;;;;6.20;99.90;;;;;;5104142;28;19908;-82
2024/01/24 06:12:24;;;;;;;;;;;6.20;99.90;;;;;;5115289;28;19914;-83
2024/01/24 06:14:51;;;;;;;;;;;6.20;99.90;;;;;;5116405;28;19907;-84
2024/01/24 06:17:17;;;;;;;;;;;6.20;99.90;;;;;;5109469;28;20295;-84
2024/01/24 06:19:43;;;;;;;;;;;6.10;99.90;;;;;;5116392;28;19908;-85
2024/01/24 06:22:09;;;;;;;;;;;6.10;99.90;;;;;;5114590;28;19943;-84
2024/01/24 06:24:35;;;;;;;;;;;6.00;99.90;;;;;;5116483;28;19911;-86
2024/01/24 06:27:00;;;;;;;;;;;6.00;99.90;;;;;;5115618;28;19911;-84
2024/01/24 06:29:26;;;;;;;;;;;5.90;99.90;;;;;;5120094;27;19903;-85
2024/01/24 06:31:52;;;;;;;;;;;5.90;99.90;;;;;;5115647;27;20403;-84
2024/01/24 06:34:17;;;;;;;;;;;5.90;99.90;;;;;;5123623;27;19915;-85
2024/01/24 06:36:43;;;;;;;;;;;6.00;99.90;;;;;;5114302;28;19915;-85
2024/01/24 06:39:09;;;;;;;;;;;6.00;99.90;;;;;;5121583;28;19911;-86
2024/01/24 06:41:35;;;;;;;;;;;6.00;99.90;;;;;;5121618;27;19904;-85
2024/01/24 06:44:01;;;;;;;;;;;5.90;99.90;;;;;;5123021;27;19914;-83
2024/01/24 06:46:26;;;;;;;;;;;5.90;99.90;;;;;;5118192;27;19909;-84
2024/01/24 06:48:52;;;;;;;;;;;5.90;99.90;;;;;;5100590;28;19950;-83
2024/01/24 06:51:18;;;;;;;;;;;6.00;99.90;;;;;;5120093;28;19915;-85
2024/01/24 06:53:43;;;;;;;;;;;6.00;99.90;;;;;;5118817;27;19908;-85
2024/01/24 06:56:09;;;;;;;;;;;6.10;99.90;;;;;;5113208;27;19920;-85
2024/01/24 06:58:37;;;;;;;;;;;6.20;99.90;;;;;;5117419;28;19908;-85
2024/01/24 07:01:03;;;;;;;;;;;6.20;99.90;;;;;;5109559;28;20019;-86
2024/01/24 07:03:28;;;;;;;;;;;6.30;99.90;;;;;;5112973;28;19935;-86
2024/01/24 07:05:54;;;;;;;;;;;6.30;99.90;;;;;;5108358;27;20359;-86
2024/01/24 07:08:19;;;;;;;;;;;6.40;99.90;;;;;;5114507;27;19955;-80
2024/01/24 07:10:45;;;;;;;;;;;6.40;99.90;;;;;;5115183;28;19962;-81
2024/01/24 07:13:10;;;;;;;;;;;6.50;99.90;;;;;;5112225;28;19918;-81
2024/01/24 07:15:36;;;;;;;;;;;6.50;99.90;;;;;;5113050;27;19918;-81
2024/01/24 07:18:01;;;;;;;;;;;6.50;99.90;;;;;;5108282;28;19916;-81
2024/01/24 07:20:27;;;;;;;;;;;6.50;99.90;;;;;;5112205;27;19903;-82
2024/01/24 07:22:53;;;;;;;;;;;6.50;99.90;;;;;;5112504;27;19912;-81
2024/01/24 07:25:19;;;;;;;;;;;6.50;99.90;;;;;;5112954;27;19918;-81
2024/01/24 07:27:45;;;;;;;;;;;6.50;99.90;;;;;;5107691;27;20395;-81
2024/01/24 07:30:11;;;;;;;;;;;6.50;99.90;;;;;;5109265;27;19912;-81
2024/01/24 07:32:39;;;;;;;;;;;6.50;99.90;;;;;;5116514;27;19908;-81
2024/01/24 07:35:05;;;;;;;;;;;6.40;99.90;;;;;;5110057;28;20002;-81
2024/01/24 07:37:31;;;;;;;;;;;6.40;99.90;;;;;;5113360;27;19958;-81
2024/01/24 07:39:56;;;;;;;;;;;6.30;99.90;;;;;;5112330;28;19907;-83
2024/01/24 07:42:22;;;;;;;;;;;6.20;99.90;;;;;;5110889;28;19964;-82
2024/01/24 07:44:48;;;;;;;;;;;6.20;99.90;;;;;;5109049;28;20071;-81
2024/01/24 07:47:13;;;;;;;;;;;6.30;99.90;;;;;;5112431;28;19915;-83
2024/01/24 07:49:39;;;;;;;;;;;6.30;99.90;;;;;;5107640;28;20264;-81
2024/01/24 07:52:05;;;;;;;;;;;6.40;99.90;;;;;;5106911;28;19914;-82
2024/01/24 07:54:30;;;;;;;;;;;6.50;99.90;;;;;;5107597;27;19912;-82
2024/01/24 07:56:56;;;;;;;;;;;6.60;99.90;;;;;;5112294;28;19992;-82
2024/01/24 07:59:21;;;;;;;;;;;6.70;99.90;;;;;;5109400;28;20017;-81
2024/01/24 08:01:47;;;;;;;;;;;6.70;99.90;;;;;;5110334;28;19904;-82
2024/01/24 08:04:13;;;;;;;;;;;6.80;99.90;;;;;;5110876;28;19908;-82
2024/01/24 08:06:39;;;;;;;;;;;6.90;99.90;;;;;;5109238;28;20358;-82
2024/01/24 08:09:04;;;;;;;;;;;7.00;99.90;;;;;;5107909;28;20223;-82
2024/01/24 08:11:30;;;;;;;;;;;7.10;99.90;;;;;;5112003;28;19908;-83
2024/01/24 08:13:55;;;;;;;;;;;7.10;99.90;;;;;;5105720;28;20371;-82
2024/01/24 08:16:21;;;;;;;;;;;7.10;99.90;;;;;;5110964;28;19957;-82
2024/01/24 08:18:48;;;;;;;;;;;7.20;99.90;;;;;;5109539;28;19912;-82
2024/01/24 08:21:17;;;;;;;;;;;7.30;99.90;;;;;;5108724;28;19907;-83
2024/01/24 08:23:42;;;;;;;;;;;7.30;99.90;;;;;;5110000;28;20450;-83
2024/01/24 08:26:09;;;;;;;;;;;7.30;99.90;;;;;;5112791;28;20370;-82
2024/01/24 08:28:34;;;;;;;;;;;7.40;99.90;;;;;;5109834;28;19911;-82
2024/01/24 08:31:00;;;;;;;;;;;7.40;99.90;;;;;;5111956;28;19948;-82
2024/01/24 08:33:25;;;;;;;;;;;7.50;99.90;;;;;;5110478;28;20002;-82
2024/01/24 08:35:51;;;;;;;;;;;7.50;99.90;;;;;;5109994;28;19912;-81
2024/01/24 08:38:16;;;;;;;;;;;7.60;99.90;;;;;;5109847;28;19957;-82
2024/01/24 08:40:42;;;;;;;;;;;7.60;99.90;;;;;;5108369;28;20410;-81
2024/01/24 08:43:08;;;;;;;;;;;7.60;99.90;;;;;;5110733;28;19956;-85
2024/01/24 08:45:33;;;;;;;;;;;7.70;99.90;;;;;;5112899;27;19907;-80
2024/01/24 08:47:59;;;;;;;;;;;7.70;99.90;;;;;;5102915;28;19908;-80
2024/01/24 08:50:24;;;;;;;;;;;7.80;99.90;;;;;;5106785;28;19908;-85
2024/01/24 08:52:52;;;;;;;;;;;7.90;99.90;;;;;;5109841;28;20292;-82
2024/01/24 08:55:18;;;;;;;;;;;7.90;99.90;;;;;;5112827;28;20291;-81
2024/01/24 08:57:43;;;;;;;;;;;8.00;99.90;;;;;;5112001;28;19923;-82
2024/01/24 09:00:12;;;;;;;;;;;8.10;99.90;;;;;;5115077;28;19962;-82
2024/01/24 09:02:38;;;;;;;;;;;8.10;99.90;;;;;;5115388;28;19934;-81
2024/01/24 09:05:05;;;;;;;;;;;8.20;99.90;;;;;;5116182;28;19907;-81
2024/01/24 09:07:30;;;;;;;;;;;8.20;99.90;;;;;;5111967;28;20364;-83
2024/01/24 09:09:56;;;;;;;;;;;8.30;99.90;;;;;;5116018;28;19946;-82
2024/01/24 09:12:21;;;;;;;;;;;8.40;99.90;;;;;;5115340;28;20462;-84
2024/01/24 09:14:47;;;;;;;;;;;8.50;99.90;;;;;;5116145;28;20439;-80
2024/01/24 09:17:13;;;;;;;;;;;8.60;99.90;;;;;;5111482;28;20538;-81
2024/01/24 09:19:41;;;;;;;;;;;8.70;99.90;;;;;;5113113;28;20401;-81
2024/01/24 09:22:07;;;;;;;;;;;8.70;99.90;;;;;;5109850;28;19908;-80
2024/01/24 09:24:33;;;;;;;;;;;8.70;99.90;;;;;;5114444;28;20283;-83
2024/01/24 09:26:59;;;;;;;;;;;8.80;99.90;;;;;;5110980;28;20265;-82
2024/01/24 09:29:24;;;;;;;;;;;8.90;99.90;;;;;;5112881;28;20007;-81
2024/01/24 09:31:50;;;;;;;;;;;9.00;99.90;;;;;;5112177;28;19925;-80
2024/01/24 09:34:16;;;;;;;;;;;9.20;99.90;;;;;;5112159;28;19907;-80
2024/01/24 09:36:42;;;;;;;;;;;9.30;99.90;;;;;;5109665;28;19949;-80
2024/01/24 09:39:09;;;;;;;;;;;9.40;99.90;;;;;;5114226;28;19912;-80
2024/01/24 09:41:41;;;;;;;;;;;9.50;99.90;;;;;;5106749;28;19959;-79
2024/01/24 09:44:11;;;;;;;;;;;9.60;99.90;;;;;;5113196;28;19991;-79
2024/01/24 09:46:37;;;;;;;;;;;9.70;99.90;;;;;;5113077;28;19999;-80
2024/01/24 09:49:03;;;;;;;;;;;9.80;99.90;;;;;;5114003;28;19919;-81
2024/01/24 09:51:33;;;;;;;;;;;9.90;99.90;;;;;;5112589;28;19911;-80
2024/01/24 09:54:05;;;;;;;;;;;10.10;99.90;;;;;;5111164;28;19915;-80
2024/01/24 09:56:33;;;;;;;;;;;10.20;99.90;;;;;;5111837;28;19919;-80
2024/01/24 09:58:58;;;;;;;;;;;10.20;99.90;;;;;;5110741;28;19920;-80
2024/01/24 10:01:24;;;;;;;;;;;10.30;99.90;;;;;;5111622;28;19918;-81
2024/01/24 10:03:51;;;;;;;;;;;10.30;99.90;;;;;;5110839;28;19912;-80
2024/01/24 10:06:17;;;;;;;;;;;10.50;99.90;;;;;;5107187;28;20333;-80
2024/01/24 10:08:43;;;;;;;;;;;10.50;99.90;;;;;;5110024;28;19924;-81
2024/01/24 10:11:09;;;;;;;;;;;10.70;99.90;;;;;;5110069;28;19947;-81
2024/01/24 10:13:36;;;;;;;;;;;10.80;99.90;;;;;;5111330;28;20267;-81
2024/01/24 10:16:05;;;;;;;;;;;10.70;99.90;;;;;;5108222;28;19911;-80
2024/01/24 10:18:31;;;;;;;;;;;10.90;99.90;;;;;;5108591;28;19975;-81
2024/01/24 10:20:56;;;;;;;;;;;11.00;99.90;;;;;;5106171;28;20071;-81
2024/01/24 10:23:22;;;;;;;;;;;11.10;99.90;;;;;;5106758;28;19903;-79
2024/01/24 10:25:47;;;;;;;;;;;11.20;99.90;;;;;;5108109;28;19911;-81
2024/01/24 10:28:13;;;;;;;;;;;11.20;99.90;;;;;;5107323;28;19973;-81
2024/01/24 10:30:42;;;;;;;;;;;11.20;99.90;;;;;;5114310;28;19911;-80
2024/01/24 10:33:15;;;;;;;;;;;11.30;99.90;;;;;;5108815;28;19915;-81
2024/01/24 10:35:41;;;;;;;;;;;11.40;99.90;;;;;;5111330;28;19998;-81
2024/01/24 10:38:10;;;;;;;;;;;11.40;99.90;;;;;;5105882;28;19912;-83
2024/01/24 10:40:36;;;;;;;;;;;11.50;99.90;;;;;;5110654;28;19912;-82
2024/01/24 10:43:07;;;;;;;;;;;11.60;99.90;;;;;;5102194;28;19912;-81
2024/01/24 10:45:33;;;;;;;;;;;11.60;99.90;;;;;;5105233;28;19908;-80
2024/01/24 10:47:59;;;;;;;;;;;11.70;99.90;;;;;;5100636;28;19995;-80
2024/01/24 10:50:25;;;;;;;;;;;11.90;99.90;;;;;;5098410;27;19943;-80
2024/01/24 10:52:54;;;;;;;;;;;12.00;99.90;;;;;;5112102;28;20268;-80
2024/01/24 10:55:20;;;;;;;;;;;12.20;99.90;;;;;;5103321;28;19903;-81
2024/01/24 10:57:47;;;;;;;;;;;12.30;99.90;;;;;;5115486;28;19959;-80
2024/01/24 11:00:15;;;;;;;;;;;12.30;99.90;;;;;;5102647;28;19985;-80
2024/01/24 11:02:41;;;;;;;;;;;12.50;99.90;;;;;;5114290;28;19957;-81
2024/01/24 11:05:17;;;;;;;;;;;12.50;99.90;;;;;;5114216;28;19907;-81
2024/01/24 11:07:57;;;;;;;;;;;12.50;99.90;;;;;;5104105;28;19910;-80
2024/01/24 11:10:37;;;;;;;;;;;12.70;99.90;;;;;;5112515;28;19914;-80
2024/01/24 11:13:04;;;;;;;;;;;12.80;99.90;;;;;;5109112;28;19965;-81
2024/01/24 11:15:30;;;;;;;;;;;13.00;99.90;;;;;;5116376;28;19910;-80
2024/01/24 11:18:14;;;;;;;;;;;13.00;99.90;;;;;;5119510;28;19908;-81
2024/01/24 11:20:47;;;;;;;;;;;13.30;99.90;;;;;;5118243;28;19934;-80
2024/01/24 11:23:31;;;;;;;;;;;13.30;99.90;;;;;;5119258;28;19972;-80
2024/01/24 11:25:57;;;;;;;;;;;13.40;99.90;;;;;;5109268;28;19963;-80
2024/01/24 11:28:26;;;;;;;;;;;13.50;99.90;;;;;;5117800;28;20391;-80
2024/01/24 11:30:51;;;;;;;;;;;13.50;99.90;;;;;;5119376;28;19914;-80
2024/01/24 11:33:18;;;;;;;;;;;13.50;99.90;;;;;;5105650;28;20299;-80
2024/01/24 11:35:45;;;;;;;;;;;13.50;99.90;;;;;;5104716;28;19908;-80
2024/01/24 11:38:16;;;;;;;;;;;13.70;99.90;;;;;;5099815;28;19918;-80
2024/01/24 11:40:46;;;;;;;;;;;13.70;99.90;;;;;;5101457;28;20291;-80
2024/01/24 11:43:28;;;;;;;;;;;13.80;99.90;;;;;;5104474;28;19908;-80
2024/01/24 11:45:54;;;;;;;;;;;13.90;99.90;;;;;;5101625;28;20006;-80
2024/01/24 11:48:20;;;;;;;;;;;13.90;99.90;;;;;;5114852;27;20017;-80
2024/01/24 11:50:52;;;;;;;;;;;14.00;99.90;;;;;;5098534;28;19907;-80
2024/01/24 11:53:18;;;;;;;;;;;14.00;99.90;;;;;;5114952;28;19914;-80
2024/01/24 11:55:50;;;;;;;;;;;14.10;99.90;;;;;;5110771;28;19920;-79
2024/01/24 11:58:16;;;;;;;;;;;14.10;99.90;;;;;;5092759;28;20304;-79
2024/01/24 12:00:42;;;;;;;;;;;14.20;99.90;;;;;;5098629;28;19907;-81
2024/01/24 12:03:08;;;;;;;;;;;14.20;99.90;;;;;;5103226;28;19908;-80
2024/01/24 12:05:33;;;;;;;;;;;14.20;99.90;;;;;;5107062;28;19965;-80
2024/01/24 12:07:59;;;;;;;;;;;14.20;99.90;;;;;;5098910;28;19998;-80
2024/01/24 12:10:25;;;;;;;;;;;14.20;99.90;;;;;;5109816;28;19915;-80
2024/01/24 12:12:51;;;;;;;;;;;14.10;99.90;;;;;;5097899;28;19916;-80
2024/01/24 12:15:16;;;;;;;;;;;14.10;99.90;;;;;;5107631;28;19919;-80
2024/01/24 12:17:43;;;;;;;;;;;14.10;99.90;;;;;;5099382;28;19911;-79
2024/01/24 12:20:16;;;;;;;;;;;14.00;99.90;;;;;;5106676;28;19904;-79
2024/01/24 12:22:42;;;;;;;;;;;14.00;99.90;;;;;;5113494;28;20375;-80
2024/01/24 12:25:08;;;;;;;;;;;14.00;99.90;;;;;;5104284;28;20682;-81
2024/01/24 12:27:34;;;;;;;;;;;14.00;99.90;;;;;;5101063;28;20289;-79
2024/01/24 12:29:59;;;;;;;;;;;13.90;99.90;;;;;;5113975;28;19907;-80
2024/01/24 12:32:25;;;;;;;;;;;13.90;99.90;;;;;;5109654;28;19958;-80
2024/01/24 12:34:52;;;;;;;;;;;14.00;99.90;;;;;;5113701;28;20325;-80
2024/01/24 12:37:21;;;;;;;;;;;14.00;99.90;;;;;;5112385;28;19908;-80
2024/01/24 12:39:50;;;;;;;;;;;14.10;99.90;;;;;;5095698;27;19912;-80
2024/01/24 12:42:15;;;;;;;;;;;14.10;99.90;;;;;;5112758;28;19951;-80
2024/01/24 12:44:41;;;;;;;;;;;14.10;99.90;;;;;;5109146;28;20399;-79
2024/01/24 12:47:06;;;;;;;;;;;14.10;99.90;;;;;;5111691;28;20402;-79
2024/01/24 12:49:32;;;;;;;;;;;14.20;99.90;;;;;;5108099;28;19957;-78
2024/01/24 12:51:57;;;;;;;;;;;14.30;99.90;;;;;;5098203;28;19965;-79
2024/01/24 12:54:24;;;;;;;;;;;14.40;99.90;;;;;;5106488;28;19983;-78
2024/01/24 12:56:49;;;;;;;;;;;14.50;99.90;;;;;;5113442;28;19955;-79
2024/01/24 12:59:15;;;;;;;;;;;14.60;99.90;;;;;;5108573;28;19962;-78
2024/01/24 13:01:41;;;;;;;;;;;14.60;99.90;;;;;;5111925;28;19915;-79
2024/01/24 13:04:07;;;;;;;;;;;14.60;99.90;;;;;;5111729;28;19907;-79
2024/01/24 13:06:33;;;;;;;;;;;14.60;99.90;;;;;;5113244;28;19908;-81
2024/01/24 13:08:59;;;;;;;;;;;14.60;99.90;;;;;;5092740;28;20032;-79
2024/01/24 13:11:24;;;;;;;;;;;14.60;99.90;;;;;;5094882;28;19965;-80
2024/01/24 13:13:50;;;;;;;;;;;14.60;99.90;;;;;;5107088;28;20339;-79
2024/01/24 13:16:16;;;;;;;;;;;14.50;99.90;;;;;;5100059;28;20388;-80
2024/01/24 13:18:41;;;;;;;;;;;14.40;99.90;;;;;;5112282;28;20375;-79
2024/01/24 13:21:07;;;;;;;;;;;14.30;99.90;;;;;;5112241;28;19904;-79
2024/01/24 13:23:32;;;;;;;;;;;14.30;99.90;;;;;;5099899;28;19912;-80
2024/01/24 13:25:58;;;;;;;;;;;14.10;99.90;;;;;;5100454;28;20963;-80
2024/01/24 13:28:24;;;;;;;;;;;14.10;99.90;;;;;;5098410;28;20455;-81
2024/01/24 13:30:49;;;;;;;;;;;14.10;99.90;;;;;;5109727;28;19907;-79
2024/01/24 13:33:16;;;;;;;;;;;14.10;99.90;;;;;;5115340;28;19904;-79
2024/01/24 13:35:42;;;;;;;;;;;14.20;99.90;;;;;;5115238;28;19980;-79
2024/01/24 13:38:08;;;;;;;;;;;14.20;99.90;;;;;;5115848;28;20353;-79
2024/01/24 13:40:33;;;;;;;;;;;14.30;99.90;;;;;;5116703;28;20410;-79
2024/01/24 13:42:59;;;;;;;;;;;14.30;99.90;;;;;;5116447;28;19912;-80
2024/01/24 13:45:24;;;;;;;;;;;14.30;99.90;;;;;;5114586;27;19911;-80
2024/01/24 13:47:50;;;;;;;;;;;14.20;99.90;;;;;;5113220;28;19947;-79
2024/01/24 13:50:15;;;;;;;;;;;14.10;99.90;;;;;;5111257;28;19977;-79
2024/01/24 13:52:41;;;;;;;;;;;14.10;99.90;;;;;;5109278;28;20018;-79
2024/01/24 13:55:07;;;;;;;;;;;14.20;99.90;;;;;;5107067;27;20007;-79
2024/01/24 13:57:33;;;;;;;;;;;14.20;99.90;;;;;;5115109;28;19915;-80
2024/01/24 13:59:58;;;;;;;;;;;14.20;99.90;;;;;;5110533;28;19908;-80
2024/01/24 14:02:24;;;;;;;;;;;14.20;99.90;;;;;;5109347;28;19907;-79
2024/01/24 14:04:49;;;;;;;;;;;14.30;99.90;;;;;;5114831;28;19913;-80
2024/01/24 14:07:15;;;;;;;;;;;14.40;99.90;;;;;;5116307;28;20045;-81
2024/01/24 14:09:40;;;;;;;;;;;14.50;99.90;;;;;;5116757;28;19939;-80
2024/01/24 14:12:06;;;;;;;;;;;14.60;99.90;;;;;;5112303;28;19950;-80
2024/01/24 14:14:32;;;;;;;;;;;14.60;99.90;;;;;;5107046;28;19907;-80
2024/01/24 14:16:57;;;;;;;;;;;14.60;99.90;;;;;;5116132;28;19991;-80
2024/01/24 14:19:24;;;;;;;;;;;14.80;99.90;;;;;;5105656;28;20142;-80